Decoded Metar for LFRL (LANVEDOC in FRANCE) (IATA:N/A) | Meteo·Mobile Aviation Weather
aviador You're here:

LFRL Decoded Metar

LANVEDOC in FRANCE
Report Time2018-09-20 14:00:00
UTC Time2018-09-20 14:12:32
Flight Rules mvfr MVFR
Wind200° at 16 kt
W.Decomp.*RWY 23: 14.3 kt HW 7.3 kt LCW
W.Rank200° ranks 1
Current wind is above 200° avg. (9.9)
Visibility9999 m
Phenomena:N/A
Clouds:Overcast 012 Hf
Scattered 015 Hf
Expected CloudBase > 800 ft AGL from Temp-Dew spread
Ceiling1,200 ft
Temp19°C (ISA +5)
Dew Point17°C (88% RH)
AAT15.6°C
QNH1013 hPa
Density Alt1,060 ft
Elevation269 ft
Report Wrong Elevation
Raw Report
METAR LFRL 201400Z AUTO 20016KT 9999 OVC012 19/17 Q1013 BECMG
20015G28KT SCT015 BKN033=

Extra information for LFRL:More info

Metar Taf Metar & Taf Last 4 Metars F.Rules Stats Wind Profile Meteogram Temp Stats Airport Information Weather charts Add Link Nearby VenuesMetar ALERT Operation Metar Decoded Social comments